sensor_id;sensor_type;location;lat;lon;timestamp;pressure;altitude;pressure_sealevel;temperature;humidity
85094;BME280;75432;49.056;12.004;2024-02-23T00:02:10;94562.50;;;7.10;100.00
85094;BME280;75432;49.056;12.004;2024-02-23T00:04:37;94229.09;;;5.32;100.00
85094;BME280;75432;49.056;12.004;2024-02-23T00:07:03;94135.06;;;4.65;100.00
85094;BME280;75432;49.056;12.004;2024-02-23T00:09:30;94523.66;;;7.09;100.00
85094;BME280;75432;49.056;12.004;2024-02-23T00:11:56;94436.63;;;6.42;100.00
85094;BME280;75432;49.056;12.004;2024-02-23T00:14:23;94387.38;;;6.16;100.00
85094;BME280;75432;49.056;12.004;2024-02-23T00:16:50;94221.00;;;5.08;100.00
85094;BME280;75432;49.056;12.004;2024-02-23T00:19:16;94195.44;;;4.78;100.00
85094;BME280;75432;49.056;12.004;2024-02-23T00:21:45;94183.00;;;4.74;100.00
85094;BME280;75432;49.056;12.004;2024-02-23T00:24:16;94265.84;;;5.05;100.00
85094;BME280;75432;49.056;12.004;2024-02-23T00:26:43;94458.94;;;6.41;100.00
85094;BME280;75432;49.056;12.004;2024-02-23T00:29:10;94544.50;;;6.92;100.00
85094;BME280;75432;49.056;12.004;2024-02-23T00:31:40;94269.50;;;5.14;100.00
85094;BME280;75432;49.056;12.004;2024-02-23T00:34:11;94494.25;;;6.52;100.00
85094;BME280;75432;49.056;12.004;2024-02-23T00:36:40;94119.41;;;3.95;100.00
85094;BME280;75432;49.056;12.004;2024-02-23T00:39:07;94360.06;;;5.51;100.00
85094;BME280;75432;49.056;12.004;2024-02-23T00:41:35;94494.44;;;6.11;100.00
85094;BME280;75432;49.056;12.004;2024-02-23T00:44:02;94391.06;;;5.66;100.00
85094;BME280;75432;49.056;12.004;2024-02-23T00:46:29;94385.06;;;5.40;100.00
85094;BME280;75432;49.056;12.004;2024-02-23T00:48:56;94509.78;;;6.25;100.00
85094;BME280;75432;49.056;12.004;2024-02-23T00:51:23;94522.03;;;6.20;100.00
85094;BME280;75432;49.056;12.004;2024-02-23T00:53:49;94346.69;;;5.07;100.00
85094;BME280;75432;49.056;12.004;2024-02-23T00:56:16;94565.22;;;6.41;100.00
85094;BME280;75432;49.056;12.004;2024-02-23T00:58:42;94602.09;;;6.68;100.00
85094;BME280;75432;49.056;12.004;2024-02-23T01:01:09;94484.94;;;5.95;100.00
85094;BME280;75432;49.056;12.004;2024-02-23T01:03:35;94294.81;;;4.76;100.00
85094;BME280;75432;49.056;12.004;2024-02-23T01:06:02;94307.50;;;4.89;100.00
85094;BME280;75432;49.056;12.004;2024-02-23T01:08:29;94318.59;;;5.01;100.00
85094;BME280;75432;49.056;12.004;2024-02-23T01:10:55;94535.28;;;6.26;100.00
85094;BME280;75432;49.056;12.004;2024-02-23T01:13:22;94382.66;;;5.34;100.00
85094;BME280;75432;49.056;12.004;2024-02-23T01:15:49;94567.09;;;6.46;100.00
85094;BME280;75432;49.056;12.004;2024-02-23T01:18:15;94302.75;;;4.76;100.00
85094;BME280;75432;49.056;12.004;2024-02-23T01:20:42;94482.03;;;5.82;100.00
85094;BME280;75432;49.056;12.004;2024-02-23T01:23:08;94657.69;;;6.54;100.00
85094;BME280;75432;49.056;12.004;2024-02-23T01:25:35;94493.28;;;5.48;100.00
85094;BME280;75432;49.056;12.004;2024-02-23T01:28:01;94567.81;;;5.57;100.00
85094;BME280;75432;49.056;12.004;2024-02-23T01:30:29;94690.75;;;6.13;100.00
85094;BME280;75432;49.056;12.004;2024-02-23T01:32:56;94368.97;;;3.85;100.00
85094;BME280;75432;49.056;12.004;2024-02-23T01:35:22;94766.16;;;5.87;100.00
85094;BME280;75432;49.056;12.004;2024-02-23T01:37:49;94664.94;;;5.53;100.00
85094;BME280;75432;49.056;12.004;2024-02-23T01:40:15;94699.72;;;5.76;100.00
85094;BME280;75432;49.056;12.004;2024-02-23T01:42:42;94673.69;;;5.33;100.00
85094;BME280;75432;49.056;12.004;2024-02-23T01:45:08;94612.91;;;5.06;100.00
85094;BME280;75432;49.056;12.004;2024-02-23T01:47:35;94510.19;;;4.31;100.00
85094;BME280;75432;49.056;12.004;2024-02-23T01:50:02;94609.69;;;4.89;100.00
85094;BME280;75432;49.056;12.004;2024-02-23T01:52:29;94430.06;;;3.78;100.00
85094;BME280;75432;49.056;12.004;2024-02-23T01:54:56;94566.66;;;4.57;100.00
85094;BME280;75432;49.056;12.004;2024-02-23T01:57:23;94627.97;;;4.86;100.00
85094;BME280;75432;49.056;12.004;2024-02-23T02:00:11;94705.25;;;5.29;100.00
85094;BME280;75432;49.056;12.004;2024-02-23T02:02:45;94578.06;;;4.47;100.00
85094;BME280;75432;49.056;12.004;2024-02-23T02:05:12;94652.56;;;4.66;100.00
85094;BME280;75432;49.056;12.004;2024-02-23T02:07:40;94707.84;;;5.14;100.00
85094;BME280;75432;49.056;12.004;2024-02-23T02:10:09;94467.03;;;3.63;100.00
85094;BME280;75432;49.056;12.004;2024-02-23T02:12:36;94707.59;;;5.16;100.00
85094;BME280;75432;49.056;12.004;2024-02-23T02:15:03;94713.16;;;5.14;100.00
85094;BME280;75432;49.056;12.004;2024-02-23T02:17:30;94592.31;;;4.36;100.00
85094;BME280;75432;49.056;12.004;2024-02-23T02:20:02;94620.16;;;4.49;100.00
85094;BME280;75432;49.056;12.004;2024-02-23T02:22:33;94501.75;;;3.72;100.00
85094;BME280;75432;49.056;12.004;2024-02-23T02:25:00;94521.34;;;3.76;100.00
85094;BME280;75432;49.056;12.004;2024-02-23T02:27:27;94475.69;;;3.49;100.00
85094;BME280;75432;49.056;12.004;2024-02-23T02:29:54;94513.66;;;3.69;99.82
85094;BME280;75432;49.056;12.004;2024-02-23T02:32:20;94448.56;;;3.21;99.75
85094;BME280;75432;49.056;12.004;2024-02-23T02:34:47;94706.69;;;4.80;99.75
85094;BME280;75432;49.056;12.004;2024-02-23T02:37:14;94190.63;;;1.32;99.28
85094;BME280;75432;49.056;12.004;2024-02-23T02:39:40;94650.78;;;4.29;99.67
85094;BME280;75432;49.056;12.004;2024-02-23T02:42:07;94670.97;;;4.36;99.31
85094;BME280;75432;49.056;12.004;2024-02-23T02:44:34;94711.31;;;4.53;99.73
85094;BME280;75432;49.056;12.004;2024-02-23T02:47:00;94782.53;;;4.91;99.39
85094;BME280;75432;49.056;12.004;2024-02-23T02:49:27;94558.25;;;3.51;99.16
85094;BME280;75432;49.056;12.004;2024-02-23T02:51:53;94391.50;;;2.42;98.95
85094;BME280;75432;49.056;12.004;2024-02-23T02:54:20;94786.22;;;4.85;98.96
85094;BME280;75432;49.056;12.004;2024-02-23T02:56:49;94801.88;;;4.87;99.25
85094;BME280;75432;49.056;12.004;2024-02-23T02:59:17;94620.75;;;3.67;98.59
85094;BME280;75432;49.056;12.004;2024-02-23T03:01:44;94815.38;;;4.85;98.71
85094;BME280;75432;49.056;12.004;2024-02-23T03:04:12;94805.84;;;4.84;98.68
85094;BME280;75432;49.056;12.004;2024-02-23T03:06:38;94821.22;;;4.82;98.67
85094;BME280;75432;49.056;12.004;2024-02-23T03:09:05;94629.69;;;3.56;98.76
85094;BME280;75432;49.056;12.004;2024-02-23T03:11:33;94438.06;;;2.53;98.51
85094;BME280;75432;49.056;12.004;2024-02-23T03:14:00;94642.81;;;3.77;98.67
85094;BME280;75432;49.056;12.004;2024-02-23T03:16:26;94733.97;;;4.28;98.46
85094;BME280;75432;49.056;12.004;2024-02-23T03:18:53;94791.09;;;4.56;98.82
85094;BME280;75432;49.056;12.004;2024-02-23T03:21:20;94594.13;;;3.42;98.38
85094;BME280;75432;49.056;12.004;2024-02-23T03:23:47;94562.22;;;3.16;97.92
85094;BME280;75432;49.056;12.004;2024-02-23T03:26:13;94543.59;;;3.01;98.48
85094;BME280;75432;49.056;12.004;2024-02-23T03:28:42;94722.72;;;4.11;98.61
85094;BME280;75432;49.056;12.004;2024-02-23T03:31:09;94609.22;;;3.41;98.65
85094;BME280;75432;49.056;12.004;2024-02-23T03:33:35;94578.09;;;3.16;98.68
85094;BME280;75432;49.056;12.004;2024-02-23T03:36:03;94765.75;;;4.33;98.65
85094;BME280;75432;49.056;12.004;2024-02-23T03:38:30;94538.22;;;2.91;98.19
85094;BME280;75432;49.056;12.004;2024-02-23T03:40:58;94804.84;;;4.53;98.54
85094;BME280;75432;49.056;12.004;2024-02-23T03:43:24;94677.97;;;3.73;98.00
85094;BME280;75432;49.056;12.004;2024-02-23T03:45:51;94683.50;;;3.71;98.02
85094;BME280;75432;49.056;12.004;2024-02-23T03:48:17;94884.22;;;4.75;98.72
85094;BME280;75432;49.056;12.004;2024-02-23T03:50:44;94840.47;;;4.72;98.64
85094;BME280;75432;49.056;12.004;2024-02-23T03:53:10;94709.00;;;3.82;98.17
85094;BME280;75432;49.056;12.004;2024-02-23T03:55:37;94727.94;;;4.01;98.25
85094;BME280;75432;49.056;12.004;2024-02-23T03:58:04;94746.78;;;4.10;97.92
85094;BME280;75432;49.056;12.004;2024-02-23T04:00:30;94756.59;;;4.09;98.02
85094;BME280;75432;49.056;12.004;2024-02-23T04:02:57;94623.06;;;3.21;97.23
85094;BME280;75432;49.056;12.004;2024-02-23T04:05:24;94682.06;;;3.54;97.25
85094;BME280;75432;49.056;12.004;2024-02-23T04:07:50;94758.13;;;4.00;97.45
85094;BME280;75432;49.056;12.004;2024-02-23T04:10:17;94798.00;;;4.25;97.88
85094;BME280;75432;49.056;12.004;2024-02-23T04:12:49;94846.78;;;4.61;98.22
85094;BME280;75432;49.056;12.004;2024-02-23T04:15:15;94794.84;;;4.23;97.80
85094;BME280;75432;49.056;12.004;2024-02-23T04:17:42;94717.41;;;3.74;97.88
85094;BME280;75432;49.056;12.004;2024-02-23T04:20:09;94651.00;;;3.39;98.23
85094;BME280;75432;49.056;12.004;2024-02-23T04:22:38;94842.53;;;4.60;98.34
85094;BME280;75432;49.056;12.004;2024-02-23T04:25:05;94481.75;;;2.38;98.19
85094;BME280;75432;49.056;12.004;2024-02-23T04:27:31;94849.19;;;4.63;98.40
85094;BME280;75432;49.056;12.004;2024-02-23T04:29:58;94620.91;;;3.18;97.73
85094;BME280;75432;49.056;12.004;2024-02-23T04:32:24;94592.25;;;3.05;98.42
85094;BME280;75432;49.056;12.004;2024-02-23T04:34:51;94617.75;;;3.21;98.63
85094;BME280;75432;49.056;12.004;2024-02-23T04:37:18;94671.75;;;3.57;98.97
85094;BME280;75432;49.056;12.004;2024-02-23T04:39:44;94710.53;;;3.73;99.40
85094;BME280;75432;49.056;12.004;2024-02-23T04:42:11;94796.50;;;4.35;99.15
85094;BME280;75432;49.056;12.004;2024-02-23T04:44:37;94728.31;;;3.83;99.15
85094;BME280;75432;49.056;12.004;2024-02-23T04:47:04;94731.25;;;3.87;99.22
85094;BME280;75432;49.056;12.004;2024-02-23T04:49:31;94597.44;;;2.95;98.70
85094;BME280;75432;49.056;12.004;2024-02-23T04:51:57;94863.75;;;4.65;98.81
85094;BME280;75432;49.056;12.004;2024-02-23T04:54:24;94687.84;;;3.51;98.85
85094;BME280;75432;49.056;12.004;2024-02-23T04:56:50;94701.66;;;3.58;98.79
85094;BME280;75432;49.056;12.004;2024-02-23T04:59:17;94643.63;;;3.14;98.90
85094;BME280;75432;49.056;12.004;2024-02-23T05:01:43;94710.09;;;3.55;98.71
85094;BME280;75432;49.056;12.004;2024-02-23T05:04:10;94745.66;;;3.69;99.14
85094;BME280;75432;49.056;12.004;2024-02-23T05:06:36;94569.84;;;2.54;98.91
85094;BME280;75432;49.056;12.004;2024-02-23T05:09:03;94630.97;;;2.90;98.95
85094;BME280;75432;49.056;12.004;2024-02-23T05:11:29;94536.47;;;2.43;98.90
85094;BME280;75432;49.056;12.004;2024-02-23T05:13:56;94547.56;;;2.45;98.75
85094;BME280;75432;49.056;12.004;2024-02-23T05:16:22;94258.81;;;0.54;98.72
85094;BME280;75432;49.056;12.004;2024-02-23T05:18:49;94669.81;;;3.16;99.08
85094;BME280;75432;49.056;12.004;2024-02-23T05:21:16;94481.53;;;1.91;98.33
85094;BME280;75432;49.056;12.004;2024-02-23T05:23:43;94697.66;;;3.28;98.83
85094;BME280;75432;49.056;12.004;2024-02-23T05:26:10;94632.25;;;2.87;98.65
85094;BME280;75432;49.056;12.004;2024-02-23T05:28:37;94887.59;;;4.28;98.81
85094;BME280;75432;49.056;12.004;2024-02-23T05:31:04;94411.09;;;1.43;98.60
85094;BME280;75432;49.056;12.004;2024-02-23T05:33:30;94791.94;;;3.93;98.73
85094;BME280;75432;49.056;12.004;2024-02-23T05:35:57;94713.38;;;3.40;98.72
85094;BME280;75432;49.056;12.004;2024-02-23T05:38:24;94764.13;;;3.64;99.07
85094;BME280;75432;49.056;12.004;2024-02-23T05:40:50;94324.38;;;0.99;98.50
85094;BME280;75432;49.056;12.004;2024-02-23T05:43:17;94917.38;;;4.46;99.09
85094;BME280;75432;49.056;12.004;2024-02-23T05:45:43;94857.78;;;4.43;99.08
85094;BME280;75432;49.056;12.004;2024-02-23T05:48:11;94730.81;;;3.63;98.73
85094;BME280;75432;49.056;12.004;2024-02-23T05:50:38;94508.44;;;2.15;98.97
85094;BME280;75432;49.056;12.004;2024-02-23T05:53:05;94676.72;;;2.95;98.54
85094;BME280;75432;49.056;12.004;2024-02-23T05:55:32;94768.31;;;3.60;98.77
85094;BME280;75432;49.056;12.004;2024-02-23T05:57:58;94702.88;;;3.18;99.04
85094;BME280;75432;49.056;12.004;2024-02-23T06:00:25;94908.06;;;4.38;99.04
85094;BME280;75432;49.056;12.004;2024-02-23T06:02:51;94789.78;;;3.63;98.41
85094;BME280;75432;49.056;12.004;2024-02-23T06:05:18;94840.63;;;3.92;98.59
85094;BME280;75432;49.056;12.004;2024-02-23T06:07:44;94688.28;;;2.89;98.49
85094;BME280;75432;49.056;12.004;2024-02-23T06:10:11;94865.31;;;3.98;98.75
85094;BME280;75432;49.056;12.004;2024-02-23T06:12:37;94933.16;;;4.30;98.77
85094;BME280;75432;49.056;12.004;2024-02-23T06:15:05;94687.06;;;2.75;98.60
85094;BME280;75432;49.056;12.004;2024-02-23T06:17:32;94707.75;;;2.83;98.65
85094;BME280;75432;49.056;12.004;2024-02-23T06:19:59;94713.78;;;2.78;98.52
85094;BME280;75432;49.056;12.004;2024-02-23T06:22:26;94663.44;;;2.42;98.66
85094;BME280;75432;49.056;12.004;2024-02-23T06:24:52;94610.19;;;2.06;98.70
85094;BME280;75432;49.056;12.004;2024-02-23T06:27:19;94731.50;;;2.78;98.72
85094;BME280;75432;49.056;12.004;2024-02-23T06:29:45;94765.59;;;3.01;98.79
85094;BME280;75432;49.056;12.004;2024-02-23T06:32:12;94690.03;;;2.57;98.76
85094;BME280;75432;49.056;12.004;2024-02-23T06:34:38;94504.31;;;1.37;98.71
85094;BME280;75432;49.056;12.004;2024-02-23T06:37:04;94903.06;;;3.88;99.11
85094;BME280;75432;49.056;12.004;2024-02-23T06:39:31;94792.44;;;3.15;98.89
85094;BME280;75432;49.056;12.004;2024-02-23T06:41:58;94697.41;;;2.55;98.70
85094;BME280;75432;49.056;12.004;2024-02-23T06:44:27;94788.16;;;3.09;98.72
85094;BME280;75432;49.056;12.004;2024-02-23T06:46:53;94631.38;;;2.11;98.54
85094;BME280;75432;49.056;12.004;2024-02-23T06:49:20;94755.28;;;2.78;98.69
85094;BME280;75432;49.056;12.004;2024-02-23T06:51:46;94659.47;;;2.01;98.41
85094;BME280;75432;49.056;12.004;2024-02-23T06:54:13;94858.97;;;3.50;98.24
85094;BME280;75432;49.056;12.004;2024-02-23T06:56:39;94801.69;;;3.12;98.44
85094;BME280;75432;49.056;12.004;2024-02-23T06:59:06;94919.00;;;3.93;98.42
85094;BME280;75432;49.056;12.004;2024-02-23T07:01:33;94630.06;;;2.14;98.14
85094;BME280;75432;49.056;12.004;2024-02-23T07:04:05;94381.31;;;0.44;97.82
85094;BME280;75432;49.056;12.004;2024-02-23T07:06:32;94700.66;;;2.62;97.96
85094;BME280;75432;49.056;12.004;2024-02-23T07:08:58;94766.06;;;2.98;98.14
85094;BME280;75432;49.056;12.004;2024-02-23T07:11:25;94756.94;;;2.62;97.40
85094;BME280;75432;49.056;12.004;2024-02-23T07:13:51;94975.53;;;4.30;98.17
85094;BME280;75432;49.056;12.004;2024-02-23T07:16:18;94821.41;;;3.26;98.19
85094;BME280;75432;49.056;12.004;2024-02-23T07:18:45;94464.44;;;1.12;97.88
85094;BME280;75432;49.056;12.004;2024-02-23T07:21:11;94983.53;;;4.36;98.07
85094;BME280;75432;49.056;12.004;2024-02-23T07:23:38;94815.63;;;3.29;98.00
85094;BME280;75432;49.056;12.004;2024-02-23T07:26:04;94622.47;;;1.96;97.70
85094;BME280;75432;49.056;12.004;2024-02-23T07:28:31;94986.72;;;4.38;98.15
85094;BME280;75432;49.056;12.004;2024-02-23T07:30:59;94926.72;;;4.00;97.95
85094;BME280;75432;49.056;12.004;2024-02-23T07:33:25;94977.91;;;4.05;97.43
85094;BME280;75432;49.056;12.004;2024-02-23T07:35:52;94633.31;;;1.61;96.96
85094;BME280;75432;49.056;12.004;2024-02-23T07:38:18;94821.72;;;3.30;97.19
85094;BME280;75432;49.056;12.004;2024-02-23T07:40:45;94691.47;;;2.48;96.94
85094;BME280;75432;49.056;12.004;2024-02-23T07:43:12;94891.78;;;3.76;97.33
85094;BME280;75432;49.056;12.004;2024-02-23T07:45:39;94789.44;;;2.84;97.03
85094;BME280;75432;49.056;12.004;2024-02-23T07:48:06;94899.50;;;3.77;97.47
85094;BME280;75432;49.056;12.004;2024-02-23T07:50:35;94765.47;;;2.91;96.74
85094;BME280;75432;49.056;12.004;2024-02-23T07:53:01;95006.28;;;4.37;97.33
85094;BME280;75432;49.056;12.004;2024-02-23T07:55:28;94629.38;;;2.02;96.86
85094;BME280;75432;49.056;12.004;2024-02-23T07:57:54;94907.25;;;3.84;97.45
85094;BME280;75432;49.056;12.004;2024-02-23T08:00:27;94781.47;;;3.01;97.10
85094;BME280;75432;49.056;12.004;2024-02-23T08:02:54;94855.66;;;3.38;97.25
85094;BME280;75432;49.056;12.004;2024-02-23T08:05:23;94736.44;;;2.74;97.38
85094;BME280;75432;49.056;12.004;2024-02-23T08:07:50;94879.50;;;3.65;97.55
85094;BME280;75432;49.056;12.004;2024-02-23T08:10:17;95030.09;;;4.31;97.26
85094;BME280;75432;49.056;12.004;2024-02-23T08:12:43;94808.91;;;3.22;97.38
85094;BME280;75432;49.056;12.004;2024-02-23T08:15:10;94959.31;;;4.00;97.24
85094;BME280;75432;49.056;12.004;2024-02-23T08:17:37;94917.81;;;3.84;96.57
85094;BME280;75432;49.056;12.004;2024-02-23T08:20:04;94763.84;;;2.90;96.58
85094;BME280;75432;49.056;12.004;2024-02-23T08:22:31;95031.88;;;4.48;97.06
85094;BME280;75432;49.056;12.004;2024-02-23T08:24:58;95026.31;;;4.49;97.03
85094;BME280;75432;49.056;12.004;2024-02-23T08:27:24;94783.84;;;3.03;96.43
85094;BME280;75432;49.056;12.004;2024-02-23T08:29:50;94813.22;;;3.28;96.67
85094;BME280;75432;49.056;12.004;2024-02-23T08:32:17;94770.69;;;3.08;96.64
85094;BME280;75432;49.056;12.004;2024-02-23T08:34:45;94810.69;;;3.38;96.48
85094;BME280;75432;49.056;12.004;2024-02-23T08:37:11;94788.06;;;3.25;96.40
85094;BME280;75432;49.056;12.004;2024-02-23T08:39:38;94741.66;;;3.13;96.06
85094;BME280;75432;49.056;12.004;2024-02-23T08:42:05;94898.78;;;4.09;96.29
85094;BME280;75432;49.056;12.004;2024-02-23T08:44:31;94859.69;;;3.94;96.01
85094;BME280;75432;49.056;12.004;2024-02-23T08:46:58;94385.16;;;0.92;95.33
85094;BME280;75432;49.056;12.004;2024-02-23T08:49:24;95016.72;;;4.70;96.24
85094;BME280;75432;49.056;12.004;2024-02-23T08:51:51;94614.31;;;2.40;95.56
85094;BME280;75432;49.056;12.004;2024-02-23T08:54:18;94895.69;;;4.17;95.93
85094;BME280;75432;49.056;12.004;2024-02-23T08:56:44;95000.38;;;4.83;96.23
85094;BME280;75432;49.056;12.004;2024-02-23T08:59:11;94968.31;;;4.53;96.33
85094;BME280;75432;49.056;12.004;2024-02-23T09:01:37;94971.91;;;4.68;96.12
85094;BME280;75432;49.056;12.004;2024-02-23T09:04:04;94998.84;;;4.87;95.45
85094;BME280;75432;49.056;12.004;2024-02-23T09:06:30;95005.50;;;4.90;96.07
85094;BME280;75432;49.056;12.004;2024-02-23T09:09:04;94947.41;;;4.56;95.65
85094;BME280;75432;49.056;12.004;2024-02-23T09:11:30;94817.19;;;3.79;96.27
85094;BME280;75432;49.056;12.004;2024-02-23T09:13:57;94954.31;;;4.57;96.45
85094;BME280;75432;49.056;12.004;2024-02-23T09:16:24;94375.53;;;1.03;95.55
85094;BME280;75432;49.056;12.004;2024-02-23T09:18:51;94865.03;;;3.99;95.50
85094;BME280;75432;49.056;12.004;2024-02-23T09:21:17;94728.19;;;3.14;94.90
85094;BME280;75432;49.056;12.004;2024-02-23T09:23:45;94924.97;;;4.37;94.48
85094;BME280;75432;49.056;12.004;2024-02-23T09:26:11;94796.59;;;3.54;94.11
85094;BME280;75432;49.056;12.004;2024-02-23T09:28:38;94994.97;;;4.68;94.50
85094;BME280;75432;49.056;12.004;2024-02-23T09:31:07;94984.13;;;4.69;95.00
85094;BME280;75432;49.056;12.004;2024-02-23T09:33:34;94957.69;;;4.48;94.58
85094;BME280;75432;49.056;12.004;2024-02-23T09:36:00;94950.03;;;4.24;93.63
85094;BME280;75432;49.056;12.004;2024-02-23T09:38:27;94781.81;;;3.31;93.88
85094;BME280;75432;49.056;12.004;2024-02-23T09:40:54;95079.53;;;4.96;92.90
85094;BME280;75432;49.056;12.004;2024-02-23T09:43:21;95010.19;;;4.56;93.51
85094;BME280;75432;49.056;12.004;2024-02-23T09:45:52;94803.75;;;3.32;92.88
85094;BME280;75432;49.056;12.004;2024-02-23T09:48:19;95062.53;;;4.92;92.74
85094;BME280;75432;49.056;12.004;2024-02-23T09:50:47;94879.06;;;3.73;92.29
85094;BME280;75432;49.056;12.004;2024-02-23T09:53:14;94969.41;;;4.30;92.78
85094;BME280;75432;49.056;12.004;2024-02-23T09:55:42;94786.56;;;3.08;92.45
85094;BME280;75432;49.056;12.004;2024-02-23T09:58:12;94892.81;;;3.70;92.06
85094;BME280;75432;49.056;12.004;2024-02-23T10:00:40;95014.06;;;4.43;92.00
85094;BME280;75432;49.056;12.004;2024-02-23T10:03:07;94846.06;;;3.54;92.90
85094;BME280;75432;49.056;12.004;2024-02-23T10:05:34;94800.84;;;3.33;92.55
85094;BME280;75432;49.056;12.004;2024-02-23T10:08:06;94791.28;;;3.27;92.52
85094;BME280;75432;49.056;12.004;2024-02-23T10:10:34;94932.03;;;4.26;92.85
85094;BME280;75432;49.056;12.004;2024-02-23T10:13:02;95004.31;;;4.49;91.93
85094;BME280;75432;49.056;12.004;2024-02-23T10:15:31;95027.25;;;4.65;91.55
85094;BME280;75432;49.056;12.004;2024-02-23T10:17:57;95078.44;;;4.92;92.48
85094;BME280;75432;49.056;12.004;2024-02-23T10:20:24;94788.66;;;3.32;92.35
85094;BME280;75432;49.056;12.004;2024-02-23T10:22:50;95009.38;;;4.77;93.09
85094;BME280;75432;49.056;12.004;2024-02-23T10:25:20;94963.53;;;4.50;92.68
85094;BME280;75432;49.056;12.004;2024-02-23T10:27:46;94976.91;;;4.65;92.45
85094;BME280;75432;49.056;12.004;2024-02-23T10:30:13;95007.81;;;4.81;92.69
85094;BME280;75432;49.056;12.004;2024-02-23T10:32:41;95001.91;;;4.74;93.11
85094;BME280;75432;49.056;12.004;2024-02-23T10:35:15;95005.22;;;4.86;92.26
85094;BME280;75432;49.056;12.004;2024-02-23T10:37:48;95061.91;;;5.12;91.34
85094;BME280;75432;49.056;12.004;2024-02-23T10:40:19;94827.47;;;3.70;91.97
85094;BME280;75432;49.056;12.004;2024-02-23T10:42:47;94741.19;;;3.16;92.38
85094;BME280;75432;49.056;12.004;2024-02-23T10:45:18;95062.22;;;5.15;91.58
85094;BME280;75432;49.056;12.004;2024-02-23T10:47:46;95059.59;;;5.20;92.22
85094;BME280;75432;49.056;12.004;2024-02-23T10:50:14;94837.63;;;3.83;92.43
85094;BME280;75432;49.056;12.004;2024-02-23T10:52:44;94830.69;;;3.77;91.71
85094;BME280;75432;49.056;12.004;2024-02-23T10:55:13;95042.00;;;5.09;92.34
85094;BME280;75432;49.056;12.004;2024-02-23T10:57:40;94784.66;;;3.52;91.25
85094;BME280;75432;49.056;12.004;2024-02-23T11:00:08;94680.91;;;2.91;90.83
85094;BME280;75432;49.056;12.004;2024-02-23T11:02:43;94988.22;;;4.87;90.89
85094;BME280;75432;49.056;12.004;2024-02-23T11:05:13;95044.56;;;5.31;91.21
85094;BME280;75432;49.056;12.004;2024-02-23T11:07:41;94948.31;;;4.67;90.08
85094;BME280;75432;49.056;12.004;2024-02-23T11:10:08;94866.22;;;4.13;89.85
85094;BME280;75432;49.056;12.004;2024-02-23T11:12:37;95010.38;;;5.03;89.29
85094;BME280;75432;49.056;12.004;2024-02-23T11:15:04;94797.63;;;3.80;88.99
85094;BME280;75432;49.056;12.004;2024-02-23T11:17:32;94971.88;;;4.95;89.47
85094;BME280;75432;49.056;12.004;2024-02-23T11:20:03;95022.03;;;5.34;88.75
85094;BME280;75432;49.056;12.004;2024-02-23T11:22:32;95002.53;;;5.18;88.76
85094;BME280;75432;49.056;12.004;2024-02-23T11:25:06;94793.78;;;3.93;89.31
85094;BME280;75432;49.056;12.004;2024-02-23T11:27:36;94902.75;;;4.11;87.77
85094;BME280;75432;49.056;12.004;2024-02-23T11:30:09;95064.47;;;5.34;87.76
85094;BME280;75432;49.056;12.004;2024-02-23T11:32:39;95042.88;;;5.52;88.45
85094;BME280;75432;49.056;12.004;2024-02-23T11:35:10;94761.63;;;3.79;88.91
85094;BME280;75432;49.056;12.004;2024-02-23T11:37:53;94953.88;;;4.97;88.12
85094;BME280;75432;49.056;12.004;2024-02-23T11:40:31;95060.31;;;5.11;88.68
85094;BME280;75432;49.056;12.004;2024-02-23T11:42:59;95043.16;;;5.60;88.17
85094;BME280;75432;49.056;12.004;2024-02-23T11:45:28;95045.56;;;5.62;88.94
85094;BME280;75432;49.056;12.004;2024-02-23T11:47:55;95041.88;;;5.63;88.87
85094;BME280;75432;49.056;12.004;2024-02-23T11:50:22;94948.50;;;4.92;88.57
85094;BME280;75432;49.056;12.004;2024-02-23T11:52:49;94770.03;;;3.98;89.02
85094;BME280;75432;49.056;12.004;2024-02-23T11:55:19;94947.06;;;5.11;88.75
85094;BME280;75432;49.056;12.004;2024-02-23T11:57:49;94680.88;;;3.40;88.48
85094;BME280;75432;49.056;12.004;2024-02-23T12:00:27;94833.59;;;4.35;88.48
85094;BME280;75432;49.056;12.004;2024-02-23T12:02:55;94986.78;;;5.01;88.92
85094;BME280;75432;49.056;12.004;2024-02-23T12:05:22;95008.50;;;5.35;88.75
85094;BME280;75432;49.056;12.004;2024-02-23T12:07:48;94811.69;;;4.12;88.70
85094;BME280;75432;49.056;12.004;2024-02-23T12:10:15;95051.88;;;5.51;88.70
85094;BME280;75432;49.056;12.004;2024-02-23T12:12:42;94766.69;;;3.80;88.93
85094;BME280;75432;49.056;12.004;2024-02-23T12:15:09;94662.63;;;3.11;88.96
85094;BME280;75432;49.056;12.004;2024-02-23T12:17:36;94935.50;;;4.91;88.81
85094;BME280;75432;49.056;12.004;2024-02-23T12:20:04;94692.28;;;3.45;88.59
85094;BME280;75432;49.056;12.004;2024-02-23T12:22:34;94944.34;;;5.01;88.27
85094;BME280;75432;49.056;12.004;2024-02-23T12:25:00;95025.06;;;5.47;88.91
85094;BME280;75432;49.056;12.004;2024-02-23T12:27:26;94628.94;;;3.02;88.96
85094;BME280;75432;49.056;12.004;2024-02-23T12:29:55;94742.28;;;3.73;89.33
85094;BME280;75432;49.056;12.004;2024-02-23T12:32:22;94820.56;;;4.28;89.68
85094;BME280;75432;49.056;12.004;2024-02-23T12:34:49;94956.13;;;5.15;89.67
85094;BME280;75432;49.056;12.004;2024-02-23T12:37:16;94524.78;;;2.12;89.08
85094;BME280;75432;49.056;12.004;2024-02-23T12:39:43;94779.94;;;4.12;89.25
85094;BME280;75432;49.056;12.004;2024-02-23T12:42:10;95035.47;;;5.59;89.74
85094;BME280;75432;49.056;12.004;2024-02-23T12:44:36;94907.13;;;4.91;90.23
85094;BME280;75432;49.056;12.004;2024-02-23T12:47:03;94844.41;;;4.28;90.01
85094;BME280;75432;49.056;12.004;2024-02-23T12:49:30;94950.81;;;5.15;89.97
85094;BME280;75432;49.056;12.004;2024-02-23T12:51:56;94728.88;;;3.85;89.48
85094;BME280;75432;49.056;12.004;2024-02-23T12:54:23;95025.69;;;5.64;89.93
85094;BME280;75432;49.056;12.004;2024-02-23T12:56:49;94962.44;;;5.09;90.29
85094;BME280;75432;49.056;12.004;2024-02-23T12:59:16;94770.56;;;4.00;89.92